Terminal Aerodrome Forecast
Issued by NWS Louisville, KY

Home | Current Version | Previous Version | Text Only | Print | Product List | Glossary On
Versions: 1 2 3 4 5 6 7 8 9 10 11 12 13 14 15 16 17 18
000
FTUS43 KLMK 051700
TAFLEX
TAF
KLEX 051729Z 0518/0618 VRB04KT P6SM -RA SCT012 BKN060
     FM052000 VRB04KT P6SM BKN060
     FM060600 VRB03KT 4SM BR FEW040 BKN250
     FM061400 VRB04KT P6SM FEW040 BKN250=

USA.gov is the U.S. government's official web portal to all federal, state and local government web resources and services.